Wetterdaten: Woche 16.07.07 - 22.07.07 (KW29)
Datum Zeit Temperatur Luftfeuchte Luftdruck Niederschlag Wind Richtung Sonnenschein Solar Taupunkt Windchill Windben
16.07.2007 00:00 19.8 C 84 % 1014.3 hPa 0.0 l/m 0.8 km/h (0 Bft) SO 0.00 h 0 W/m 17.0 C 19.8 C 1.5 km/h (1 Bft)
16.07.2007 01:00 18.8 C 86 % 1014.5 hPa 0.0 l/m 0.7 km/h (0 Bft) O-SO 0.00 h 0 W/m 16.4 C 18.8 C 1.3 km/h (1 Bft)
16.07.2007 02:00 17.9 C 87 % 1014.4 hPa 0.0 l/m 0.9 km/h (0 Bft) O-SO 0.00 h 0 W/m 15.8 C 17.9 C 1.4 km/h (1 Bft)
16.07.2007 03:00 17.4 C 90 % 1014.2 hPa 0.0 l/m 0.7 km/h (0 Bft) O-SO 0.00 h 0 W/m 15.8 C 17.4 C 1.2 km/h (1 Bft)
16.07.2007 04:00 16.7 C 90 % 1014.3 hPa 0.0 l/m 0.4 km/h (0 Bft) O-SO 0.00 h 0 W/m 15.1 C 16.7 C 0.7 km/h (0 Bft)
16.07.2007 05:00 16.1 C 91 % 1014.6 hPa 0.0 l/m 1.1 km/h (0 Bft) O-SO 0.00 h 7 W/m 14.7 C 16.1 C 1.9 km/h (1 Bft)
16.07.2007 06:00 16.2 C 96 % 1014.8 hPa 0.0 l/m 0.0 km/h (0 Bft) N 0.00 h 21 W/m 15.5 C 16.2 C 0.2 km/h (0 Bft)
16.07.2007 07:00 17.6 C 92 % 1015.0 hPa 0.0 l/m 0.0 km/h (0 Bft) N 0.82 h 164 W/m 16.3 C 17.6 C 0.1 km/h (0 Bft)
16.07.2007 08:00 20.2 C 83 % 1015.3 hPa 0.0 l/m 0.2 km/h (0 Bft) O-SO 1.00 h 333 W/m 17.2 C 20.2 C 0.8 km/h (0 Bft)
16.07.2007 09:00 22.6 C 75 % 1015.4 hPa 0.0 l/m 0.7 km/h (0 Bft) O-NO 1.00 h 497 W/m 17.8 C 22.6 C 2.0 km/h (1 Bft)
16.07.2007 10:00 25.4 C 60 % 1015.0 hPa 0.0 l/m 1.4 km/h (1 Bft) W-SW 1.00 h 644 W/m 17.0 C 25.4 C 3.4 km/h (1 Bft)
16.07.2007 11:00 27.5 C 52 % 1014.8 hPa 0.0 l/m 1.3 km/h (1 Bft) W-NW 1.00 h 760 W/m 16.8 C 27.5 C 2.9 km/h (1 Bft)
16.07.2007 12:00 29.1 C 45 % 1014.3 hPa 0.0 l/m 2.4 km/h (1 Bft) W 1.00 h 835 W/m 15.8 C 29.1 C 4.6 km/h (1 Bft)
16.07.2007 13:00 30.6 C 41 % 1013.5 hPa 0.0 l/m 3.5 km/h (1 Bft) W-NW 1.00 h 862 W/m 15.7 C 30.6 C 5.1 km/h (1 Bft)
16.07.2007 14:00 31.9 C 41 % 1012.8 hPa 0.0 l/m 2.7 km/h (1 Bft) N-NW 1.00 h 836 W/m 17.0 C 31.9 C 4.7 km/h (1 Bft)
16.07.2007 15:00 32.9 C 34 % 1012.0 hPa 0.0 l/m 2.8 km/h (1 Bft) O 1.00 h 769 W/m 14.9 C 32.9 C 6.0 km/h (2 Bft)
16.07.2007 16:00 33.7 C 28 % 1011.5 hPa 0.0 l/m 3.9 km/h (1 Bft) O-SO 1.00 h 661 W/m 12.7 C 33.7 C 7.0 km/h (2 Bft)
16.07.2007 17:00 33.6 C 30 % 1010.9 hPa 0.0 l/m 2.5 km/h (1 Bft) O 0.98 h 510 W/m 13.7 C 33.6 C 5.0 km/h (1 Bft)
16.07.2007 18:00 31.9 C 34 % 1010.6 hPa 0.0 l/m 1.6 km/h (1 Bft) O-SO 0.33 h 223 W/m 14.1 C 31.9 C 3.0 km/h (1 Bft)
16.07.2007 19:00 30.3 C 43 % 1010.4 hPa 0.0 l/m 4.6 km/h (1 Bft) O-SO 0.65 h 194 W/m 16.3 C 30.3 C 6.2 km/h (2 Bft)
16.07.2007 20:00 28.2 C 58 % 1010.4 hPa 0.0 l/m 2.1 km/h (1 Bft) O-SO 0.45 h 68 W/m 19.0 C 28.2 C 3.9 km/h (1 Bft)
16.07.2007 21:00 26.9 C 52 % 1011.6 hPa 0.0 l/m 9.7 km/h (2 Bft) W 0.00 h 6 W/m 16.2 C 26.9 C 16.4 km/h (3 Bft)
16.07.2007 22:00 26.3 C 45 % 1012.3 hPa 0.0 l/m 11.4 km/h (2 Bft) W 0.00 h 0 W/m 13.4 C 26.3 C 17.8 km/h (3 Bft)
16.07.2007 23:00 25.4 C 47 % 1013.0 hPa 0.0 l/m 5.4 km/h (1 Bft) W 0.00 h 0 W/m 13.2 C 25.4 C 9.6 km/h (2 Bft)
17.07.2007 00:00 24.5 C 48 % 1013.8 hPa 0.0 l/m 5.7 km/h (1 Bft) W 0.00 h 0 W/m 12.7 C 24.5 C 9.0 km/h (2 Bft)
17.07.2007 01:00 22.5 C 57 % 1014.2 hPa 0.0 l/m 2.1 km/h (1 Bft) O-SO 0.00 h 0 W/m 13.5 C 22.5 C 3.4 km/h (1 Bft)
17.07.2007 02:00 20.5 C 67 % 1014.5 hPa 0.0 l/m 1.1 km/h (0 Bft) SO 0.00 h 0 W/m 14.2 C 20.5 C 2.0 km/h (1 Bft)
17.07.2007 03:00 19.7 C 71 % 1015.3 hPa 0.0 l/m 1.9 km/h (1 Bft) O-SO 0.00 h 0 W/m 14.2 C 19.7 C 3.5 km/h (1 Bft)
17.07.2007 04:00 20.3 C 66 % 1016.0 hPa 0.0 l/m 8.8 km/h (2 Bft) W-NW 0.00 h 0 W/m 13.7 C 20.3 C 14.9 km/h (3 Bft)
17.07.2007 05:00 19.9 C 66 % 1016.3 hPa 0.0 l/m 4.9 km/h (1 Bft) W 0.02 h 7 W/m 13.4 C 19.9 C 8.3 km/h (2 Bft)
17.07.2007 06:00 19.4 C 69 % 1016.8 hPa 0.0 l/m 3.8 km/h (1 Bft) W 0.00 h 27 W/m 13.6 C 19.4 C 6.9 km/h (2 Bft)
17.07.2007 07:00 20.0 C 69 % 1017.3 hPa 0.0 l/m 0.6 km/h (0 Bft) N-NO 0.40 h 144 W/m 14.1 C 20.0 C 1.7 km/h (1 Bft)
17.07.2007 08:00 21.6 C 66 % 1017.8 hPa 0.0 l/m 0.3 km/h (0 Bft) NW 1.00 h 310 W/m 14.9 C 21.6 C 1.1 km/h (0 Bft)
17.07.2007 09:00 22.9 C 62 % 1018.1 hPa 0.0 l/m 3.1 km/h (1 Bft) W-SW 0.95 h 469 W/m 15.3 C 22.9 C 5.6 km/h (1 Bft)
17.07.2007 10:00 24.1 C 58 % 1018.2 hPa 0.0 l/m 2.6 km/h (1 Bft) W-SW 0.73 h 568 W/m 15.2 C 24.1 C 5.1 km/h (1 Bft)
17.07.2007 11:00 25.2 C 57 % 1018.1 hPa 0.0 l/m 2.7 km/h (1 Bft) W-SW 0.97 h 736 W/m 16.0 C 25.2 C 5.0 km/h (1 Bft)
17.07.2007 12:00 26.1 C 49 % 1017.9 hPa 0.0 l/m 2.1 km/h (1 Bft) W-SW 0.73 h 737 W/m 14.6 C 26.1 C 3.8 km/h (1 Bft)
17.07.2007 13:00 25.7 C 54 % 1017.9 hPa 0.0 l/m 1.6 km/h (1 Bft) W-NW 0.07 h 386 W/m 15.6 C 25.7 C 3.6 km/h (1 Bft)
17.07.2007 14:00 26.4 C 54 % 1017.7 hPa 0.0 l/m 2.3 km/h (1 Bft) W 0.53 h 563 W/m 16.2 C 26.4 C 4.3 km/h (1 Bft)
17.07.2007 15:00 27.9 C 47 % 1017.3 hPa 0.0 l/m 4.0 km/h (1 Bft) W 0.58 h 625 W/m 15.5 C 27.9 C 6.6 km/h (2 Bft)
17.07.2007 16:00 27.3 C 48 % 1016.9 hPa 0.0 l/m 5.4 km/h (1 Bft) W 0.15 h 389 W/m 15.2 C 27.3 C 8.6 km/h (2 Bft)
17.07.2007 17:00 26.8 C 49 % 1016.6 hPa 0.0 l/m 5.0 km/h (1 Bft) W 0.15 h 301 W/m 15.3 C 26.8 C 8.3 km/h (2 Bft)
17.07.2007 18:00 25.6 C 55 % 1016.7 hPa 0.0 l/m 2.1 km/h (1 Bft) W 0.00 h 168 W/m 16.0 C 25.6 C 4.2 km/h (1 Bft)
17.07.2007 19:00 25.2 C 56 % 1016.7 hPa 0.0 l/m 0.8 km/h (0 Bft) W-NW 0.12 h 116 W/m 15.7 C 25.2 C 2.3 km/h (1 Bft)
17.07.2007 20:00 24.7 C 54 % 1016.7 hPa 0.0 l/m 0.2 km/h (0 Bft) W-SW 0.00 h 34 W/m 14.7 C 24.7 C 0.8 km/h (0 Bft)
17.07.2007 21:00 23.5 C 60 % 1017.0 hPa 0.0 l/m 1.0 km/h (0 Bft) SO 0.00 h 6 W/m 15.2 C 23.5 C 1.9 km/h (1 Bft)
17.07.2007 22:00 21.3 C 72 % 1017.5 hPa 0.0 l/m 2.9 km/h (1 Bft) O-SO 0.00 h 0 W/m 16.1 C 21.3 C 4.3 km/h (1 Bft)
17.07.2007 23:00 19.9 C 78 % 1017.6 hPa 0.0 l/m 2.4 km/h (1 Bft) O-SO 0.00 h 0 W/m 16.0 C 19.9 C 3.5 km/h (1 Bft)
18.07.2007 00:00 19.3 C 81 % 1017.6 hPa 0.0 l/m 0.6 km/h (0 Bft) O-SO 0.00 h 0 W/m 16.0 C 19.3 C 1.3 km/h (1 Bft)
18.07.2007 01:00 19.1 C 83 % 1017.7 hPa 0.0 l/m 1.4 km/h (1 Bft) NO 0.00 h 0 W/m 16.1 C 19.1 C 2.3 km/h (1 Bft)
18.07.2007 02:00 19.1 C 84 % 1017.4 hPa 0.2 l/m 1.2 km/h (1 Bft) N 0.00 h 0 W/m 16.3 C 19.1 C 2.6 km/h (1 Bft)
18.07.2007 03:00 18.7 C 89 % 1017.7 hPa 0.0 l/m 1.8 km/h (1 Bft) N-NW 0.00 h 0 W/m 16.9 C 18.7 C 3.5 km/h (1 Bft)
18.07.2007 04:00 18.5 C 91 % 1017.7 hPa 0.0 l/m 1.8 km/h (1 Bft) N 0.00 h 0 W/m 17.0 C 18.5 C 3.2 km/h (1 Bft)
18.07.2007 05:00 18.1 C 95 % 1017.8 hPa 0.0 l/m 0.8 km/h (0 Bft) W-SW 0.00 h 5 W/m 17.3 C 18.1 C 1.7 km/h (1 Bft)
18.07.2007 06:00 18.0 C 97 % 1018.2 hPa 0.0 l/m 1.0 km/h (0 Bft) N 0.00 h 24 W/m 17.5 C 18.0 C 2.2 km/h (1 Bft)
18.07.2007 07:00 18.8 C 92 % 1018.9 hPa 0.0 l/m 1.2 km/h (1 Bft) N 0.05 h 97 W/m 17.5 C 18.8 C 2.5 km/h (1 Bft)
18.07.2007 08:00 19.5 C 90 % 1019.5 hPa 0.4 l/m 1.7 km/h (1 Bft) N 0.00 h 120 W/m 17.8 C 19.5 C 3.1 km/h (1 Bft)
18.07.2007 09:00 19.9 C 90 % 1019.9 hPa 0.0 l/m 1.1 km/h (1 Bft) NW 0.40 h 291 W/m 18.3 C 19.9 C 2.5 km/h (1 Bft)
18.07.2007 10:00 21.5 C 82 % 1019.9 hPa 0.0 l/m 4.2 km/h (1 Bft) N-NW 0.45 h 441 W/m 18.4 C 21.5 C 6.3 km/h (2 Bft)
18.07.2007 11:00 22.3 C 79 % 1019.9 hPa 0.0 l/m 2.6 km/h (1 Bft) N-NW 0.00 h 325 W/m 18.5 C 22.3 C 4.5 km/h (1 Bft)
18.07.2007 12:00 24.3 C 70 % 1019.4 hPa 0.0 l/m 1.6 km/h (1 Bft) O-SO 0.50 h 619 W/m 18.3 C 24.3 C 4.2 km/h (1 Bft)
18.07.2007 13:00 26.3 C 60 % 1018.6 hPa 0.0 l/m 3.5 km/h (1 Bft) N-NO 0.75 h 761 W/m 17.8 C 26.3 C 6.8 km/h (2 Bft)
18.07.2007 14:00 26.8 C 60 % 1017.8 hPa 0.0 l/m 2.5 km/h (1 Bft) N 0.52 h 618 W/m 18.3 C 26.8 C 5.2 km/h (1 Bft)
18.07.2007 15:00 27.8 C 54 % 1017.6 hPa 0.0 l/m 2.9 km/h (1 Bft) O-SO 0.82 h 706 W/m 17.8 C 27.8 C 5.4 km/h (1 Bft)
18.07.2007 16:00 27.8 C 51 % 1017.2 hPa 0.0 l/m 3.3 km/h (1 Bft) O-SO 0.60 h 566 W/m 16.7 C 27.8 C 6.1 km/h (2 Bft)
18.07.2007 17:00 27.8 C 50 % 1016.9 hPa 0.0 l/m 3.9 km/h (1 Bft) O-SO 0.40 h 375 W/m 16.3 C 27.8 C 6.4 km/h (2 Bft)
18.07.2007 18:00 27.3 C 51 % 1016.6 hPa 0.0 l/m 2.1 km/h (1 Bft) O-SO 0.02 h 190 W/m 16.3 C 27.3 C 3.9 km/h (1 Bft)
18.07.2007 19:00 26.8 C 53 % 1016.6 hPa 0.0 l/m 0.0 km/h (0 Bft) O 0.00 h 105 W/m 16.5 C 26.8 C 0.5 km/h (0 Bft)
18.07.2007 20:00 25.1 C 66 % 1016.6 hPa 0.0 l/m 0.5 km/h (0 Bft) O 0.07 h 42 W/m 18.4 C 25.1 C 0.6 km/h (0 Bft)
18.07.2007 21:00 23.3 C 72 % 1017.0 hPa 0.0 l/m 0.1 km/h (0 Bft) O 0.12 h 13 W/m 18.0 C 23.3 C 0.5 km/h (0 Bft)
18.07.2007 22:00 22.0 C 73 % 1017.6 hPa 0.0 l/m 0.0 km/h (0 Bft) N 0.00 h 0 W/m 16.8 C 22.0 C 0.0 km/h (0 Bft)
18.07.2007 23:00 21.1 C 76 % 1018.0 hPa 0.0 l/m 0.0 km/h (0 Bft) N 0.00 h 0 W/m 16.7 C 21.1 C 0.0 km/h (0 Bft)
19.07.2007 00:00 20.3 C 81 % 1017.4 hPa 0.0 l/m 0.0 km/h (0 Bft) N 0.00 h 0 W/m 16.9 C 20.3 C 0.0 km/h (0 Bft)
19.07.2007 01:00 19.6 C 81 % 1016.9 hPa 0.0 l/m 0.0 km/h (0 Bft) N 0.00 h 0 W/m 16.3 C 19.6 C 0.0 km/h (0 Bft)
19.07.2007 02:00 18.9 C 84 % 1016.6 hPa 0.0 l/m 0.0 km/h (0 Bft) N 0.00 h 0 W/m 16.2 C 18.9 C 0.0 km/h (0 Bft)
19.07.2007 03:00 18.0 C 89 % 1015.5 hPa 0.0 l/m 0.0 km/h (0 Bft) N 0.00 h 0 W/m 16.2 C 18.0 C 0.0 km/h (0 Bft)
19.07.2007 04:00 17.6 C 89 % 1015.2 hPa 0.0 l/m 0.0 km/h (0 Bft) N 0.00 h 0 W/m 15.7 C 17.6 C 0.0 km/h (0 Bft)
19.07.2007 05:00 17.4 C 90 % 1015.0 hPa 0.0 l/m 0.0 km/h (0 Bft) N 0.00 h 0 W/m 15.7 C 17.4 C 0.0 km/h (0 Bft)
19.07.2007 06:00 17.5 C 93 % 1015.1 hPa 0.4 l/m 0.0 km/h (0 Bft) N 0.00 h 15 W/m 16.4 C 17.5 C 0.0 km/h (0 Bft)
19.07.2007 07:00 17.9 C 95 % 1014.9 hPa 0.0 l/m 1.1 km/h (1 Bft) NO 0.03 h 85 W/m 17.0 C 17.9 C 2.7 km/h (1 Bft)
19.07.2007 08:00 20.1 C 88 % 1014.4 hPa 0.0 l/m 2.2 km/h (1 Bft) O-SO 0.83 h 283 W/m 18.0 C 20.1 C 3.6 km/h (1 Bft)
19.07.2007 09:00 21.8 C 81 % 1014.4 hPa 0.0 l/m 6.2 km/h (2 Bft) W 0.38 h 256 W/m 18.3 C 21.8 C 9.4 km/h (2 Bft)
19.07.2007 10:00 21.8 C 79 % 1015.6 hPa 0.0 l/m 6.0 km/h (2 Bft) W 0.27 h 322 W/m 18.1 C 21.8 C 9.4 km/h (2 Bft)
19.07.2007 11:00 23.5 C 74 % 1015.6 hPa 0.0 l/m 7.2 km/h (2 Bft) W 0.30 h 426 W/m 18.6 C 23.5 C 11.6 km/h (2 Bft)
19.07.2007 12:00 21.9 C 79 % 1016.2 hPa 0.0 l/m 1.7 km/h (1 Bft) N-NO 0.00 h 183 W/m 18.1 C 21.9 C 3.7 km/h (1 Bft)
19.07.2007 13:00 22.5 C 81 % 1015.8 hPa 0.0 l/m 2.4 km/h (1 Bft) W-SW 0.23 h 398 W/m 19.0 C 22.5 C 4.3 km/h (1 Bft)
19.07.2007 14:00 23.9 C 72 % 1015.4 hPa 0.0 l/m 3.9 km/h (1 Bft) N-NW 0.00 h 348 W/m 18.6 C 23.9 C 6.1 km/h (2 Bft)
19.07.2007 15:00 26.4 C 65 % 1014.7 hPa 0.0 l/m 3.2 km/h (1 Bft) N-NW 0.78 h 650 W/m 19.2 C 26.4 C 5.5 km/h (1 Bft)
19.07.2007 16:00 28.1 C 55 % 1013.8 hPa 0.0 l/m 5.0 km/h (1 Bft) W-NW 0.77 h 553 W/m 18.0 C 28.1 C 7.5 km/h (2 Bft)
19.07.2007 17:00 26.1 C 59 % 1013.5 hPa 0.0 l/m 3.4 km/h (1 Bft) W 0.00 h 166 W/m 17.4 C 26.1 C 5.6 km/h (1 Bft)
19.07.2007 18:00 25.2 C 64 % 1013.7 hPa 0.4 l/m 1.8 km/h (1 Bft) W 0.02 h 80 W/m 17.9 C 25.2 C 4.5 km/h (1 Bft)
19.07.2007 19:00 22.6 C 81 % 1014.5 hPa 0.2 l/m 2.6 km/h (1 Bft) O-SO 0.00 h 14 W/m 19.1 C 22.6 C 4.3 km/h (1 Bft)
19.07.2007 20:00 21.8 C 86 % 1014.3 hPa 0.0 l/m 8.2 km/h (2 Bft) O-SO 0.00 h 10 W/m 19.3 C 21.8 C 11.9 km/h (2 Bft)
19.07.2007 21:00 20.9 C 87 % 1014.8 hPa 0.2 l/m 1.4 km/h (1 Bft) SO 0.00 h 0 W/m 18.7 C 20.9 C 2.9 km/h (1 Bft)
19.07.2007 22:00 20.6 C 90 % 1015.5 hPa 0.2 l/m 5.5 km/h (1 Bft) S-SO 0.00 h 0 W/m 18.8 C 20.6 C 9.2 km/h (2 Bft)
19.07.2007 23:00 20.1 C 94 % 1016.3 hPa 2.0 l/m 3.9 km/h (1 Bft) NW 0.00 h 0 W/m 19.1 C 20.1 C 6.0 km/h (2 Bft)
20.07.2007 00:00 19.3 C 93 % 1016.5 hPa 1.8 l/m 6.6 km/h (2 Bft) SO 0.00 h 0 W/m 18.1 C 19.3 C 10.3 km/h (2 Bft)
20.07.2007 01:00 18.5 C 91 % 1015.4 hPa 0.4 l/m 4.6 km/h (1 Bft) SO 0.00 h 0 W/m 17.1 C 18.5 C 8.1 km/h (2 Bft)
20.07.2007 02:00 18.2 C 95 % 1015.0 hPa 0.0 l/m 1.3 km/h (1 Bft) N 0.00 h 0 W/m 17.3 C 18.2 C 2.6 km/h (1 Bft)
20.07.2007 03:00 17.8 C 96 % 1014.5 hPa 0.0 l/m 1.0 km/h (0 Bft) O-SO 0.00 h 0 W/m 17.1 C 17.8 C 2.3 km/h (1 Bft)
20.07.2007 04:00 17.6 C 98 % 1014.1 hPa 0.0 l/m 0.0 km/h (0 Bft) N 0.00 h 0 W/m 17.2 C 17.6 C 0.1 km/h (0 Bft)
20.07.2007 05:00 17.4 C 99 % 1013.3 hPa 0.0 l/m 0.0 km/h (0 Bft) N 0.00 h 5 W/m 17.2 C 17.4 C 0.0 km/h (0 Bft)
20.07.2007 06:00 17.2 C 100 % 1013.0 hPa 0.0 l/m 0.0 km/h (0 Bft) N 0.00 h 31 W/m 17.1 C 17.2 C 0.0 km/h (0 Bft)
20.07.2007 07:00 17.7 C 100 % 1012.8 hPa 0.0 l/m 0.0 km/h (0 Bft) N 0.53 h 130 W/m 17.7 C 17.7 C 0.0 km/h (0 Bft)
20.07.2007 08:00 19.5 C 94 % 1012.6 hPa 0.0 l/m 0.0 km/h (0 Bft) N 1.00 h 309 W/m 18.5 C 19.5 C 0.0 km/h (0 Bft)
20.07.2007 09:00 21.5 C 86 % 1012.1 hPa 0.0 l/m 0.0 km/h (0 Bft) N 1.00 h 464 W/m 19.1 C 21.5 C 0.0 km/h (0 Bft)
20.07.2007 10:00 23.9 C 73 % 1011.6 hPa 0.0 l/m 0.0 km/h (0 Bft) N 1.00 h 607 W/m 18.8 C 23.9 C 0.1 km/h (0 Bft)
20.07.2007 11:00 24.8 C 72 % 1011.8 hPa 0.0 l/m 5.0 km/h (1 Bft) W 0.73 h 621 W/m 19.4 C 24.8 C 7.5 km/h (2 Bft)
20.07.2007 12:00 25.6 C 62 % 1012.6 hPa 0.0 l/m 20.0 km/h (4 Bft) W 1.00 h 786 W/m 17.8 C 25.6 C 28.7 km/h (4 Bft)
20.07.2007 13:00 26.5 C 61 % 1012.8 hPa 0.0 l/m 13.3 km/h (3 Bft) W 0.92 h 752 W/m 18.4 C 26.5 C 20.7 km/h (4 Bft)
20.07.2007 14:00 26.5 C 57 % 1013.2 hPa 0.0 l/m 17.2 km/h (3 Bft) W 0.88 h 740 W/m 17.4 C 26.5 C 25.9 km/h (4 Bft)
20.07.2007 15:00 26.2 C 60 % 1013.5 hPa 0.0 l/m 8.5 km/h (2 Bft) W 0.37 h 472 W/m 17.7 C 26.2 C 13.2 km/h (3 Bft)
20.07.2007 16:00 25.7 C 62 % 1013.8 hPa 0.0 l/m 13.2 km/h (3 Bft) W 0.67 h 510 W/m 17.8 C 25.7 C 19.9 km/h (4 Bft)
20.07.2007 17:00 24.4 C 66 % 1014.3 hPa 0.0 l/m 18.0 km/h (3 Bft) W-NW 0.15 h 183 W/m 17.6 C 24.4 C 26.2 km/h (4 Bft)
20.07.2007 18:00 22.9 C 69 % 1014.7 hPa 0.0 l/m 13.7 km/h (3 Bft) W 0.17 h 146 W/m 17.0 C 22.9 C 19.9 km/h (4 Bft)
20.07.2007 19:00 20.6 C 81 % 1016.0 hPa 0.8 l/m 10.1 km/h (2 Bft) W 0.00 h 8 W/m 17.2 C 20.6 C 16.0 km/h (3 Bft)
20.07.2007 20:00 18.7 C 94 % 1017.9 hPa 3.2 l/m 3.7 km/h (1 Bft) W 0.00 h 7 W/m 17.7 C 18.7 C 7.3 km/h (2 Bft)
20.07.2007 21:00 18.4 C 95 % 1017.4 hPa 0.2 l/m 2.2 km/h (1 Bft) O-SO 0.00 h 5 W/m 17.6 C 18.4 C 3.8 km/h (1 Bft)
20.07.2007 22:00 18.2 C 96 % 1017.3 hPa 0.0 l/m 0.9 km/h (0 Bft) O-SO 0.00 h 0 W/m 17.5 C 18.2 C 2.2 km/h (1 Bft)
20.07.2007 23:00 17.3 C 96 % 1017.5 hPa 0.0 l/m 3.8 km/h (1 Bft) W-NW 0.00 h 0 W/m 16.6 C 17.3 C 6.7 km/h (2 Bft)
21.07.2007 00:00 16.6 C 93 % 1018.4 hPa 0.0 l/m 2.6 km/h (1 Bft) W-SW 0.00 h 0 W/m 15.4 C 16.6 C 5.3 km/h (1 Bft)
21.07.2007 01:00 16.6 C 91 % 1018.8 hPa 0.0 l/m 1.2 km/h (1 Bft) O-SO 0.00 h 0 W/m 15.1 C 16.6 C 1.9 km/h (1 Bft)
21.07.2007 02:00 16.4 C 94 % 1018.2 hPa 0.0 l/m 1.8 km/h (1 Bft) NW 0.00 h 0 W/m 15.4 C 16.4 C 3.7 km/h (1 Bft)
21.07.2007 03:00 16.4 C 95 % 1017.5 hPa 0.0 l/m 0.4 km/h (0 Bft) N-NO 0.00 h 0 W/m 15.5 C 16.4 C 1.0 km/h (0 Bft)
21.07.2007 04:00 16.5 C 94 % 1016.9 hPa 0.0 l/m 0.3 km/h (0 Bft) N-NO 0.00 h 0 W/m 15.4 C 16.5 C 1.2 km/h (1 Bft)
21.07.2007 05:00 16.4 C 95 % 1016.7 hPa 0.0 l/m 0.1 km/h (0 Bft) N-NO 0.00 h 8 W/m 15.5 C 16.4 C 0.5 km/h (0 Bft)
21.07.2007 06:00 16.1 C 97 % 1016.6 hPa 0.0 l/m 0.4 km/h (0 Bft) NO 0.05 h 17 W/m 15.5 C 16.1 C 1.3 km/h (1 Bft)
21.07.2007 07:00 16.6 C 96 % 1016.5 hPa 0.0 l/m 0.8 km/h (0 Bft) N 0.00 h 39 W/m 15.9 C 16.6 C 1.8 km/h (1 Bft)
21.07.2007 08:00 17.3 C 91 % 1016.2 hPa 0.0 l/m 0.6 km/h (0 Bft) N 0.00 h 98 W/m 15.8 C 17.3 C 1.8 km/h (1 Bft)
21.07.2007 09:00 17.6 C 92 % 1016.1 hPa 0.0 l/m 2.0 km/h (1 Bft) N-NW 0.00 h 114 W/m 16.4 C 17.6 C 3.8 km/h (1 Bft)
21.07.2007 10:00 17.9 C 91 % 1015.8 hPa 0.0 l/m 2.5 km/h (1 Bft) N-NW 0.00 h 102 W/m 16.4 C 17.9 C 4.3 km/h (1 Bft)
21.07.2007 11:00 18.4 C 90 % 1015.6 hPa 0.0 l/m 0.2 km/h (0 Bft) N 0.00 h 192 W/m 16.7 C 18.4 C 0.9 km/h (0 Bft)
21.07.2007 12:00 20.0 C 84 % 1015.3 hPa 0.0 l/m 1.2 km/h (1 Bft) N 0.00 h 377 W/m 17.3 C 20.0 C 2.8 km/h (1 Bft)
21.07.2007 13:00 21.7 C 79 % 1014.6 hPa 0.0 l/m 2.7 km/h (1 Bft) W-NW 0.30 h 575 W/m 17.9 C 21.7 C 5.0 km/h (1 Bft)
21.07.2007 14:00 22.7 C 74 % 1013.8 hPa 0.0 l/m 4.0 km/h (1 Bft) N-NW 0.47 h 537 W/m 17.9 C 22.7 C 6.4 km/h (2 Bft)
21.07.2007 15:00 21.9 C 74 % 1013.7 hPa 0.0 l/m 10.2 km/h (2 Bft) W 0.20 h 387 W/m 17.1 C 21.9 C 15.7 km/h (3 Bft)
21.07.2007 16:00 20.6 C 77 % 1013.5 hPa 0.0 l/m 7.8 km/h (2 Bft) W 0.00 h 158 W/m 16.3 C 20.6 C 12.5 km/h (3 Bft)
21.07.2007 17:00 18.5 C 88 % 1013.7 hPa 1.8 l/m 5.9 km/h (2 Bft) W 0.00 h 30 W/m 16.5 C 18.5 C 10.1 km/h (2 Bft)
21.07.2007 18:00 17.1 C 97 % 1014.5 hPa 4.6 l/m 4.6 km/h (1 Bft) W 0.00 h 16 W/m 16.6 C 17.1 C 7.7 km/h (2 Bft)
21.07.2007 19:00 16.8 C 99 % 1014.0 hPa 2.4 l/m 2.2 km/h (1 Bft) NW 0.00 h 31 W/m 16.7 C 16.8 C 4.3 km/h (1 Bft)
21.07.2007 20:00 16.8 C 95 % 1014.4 hPa 0.2 l/m 1.7 km/h (1 Bft) O 0.00 h 11 W/m 16.1 C 16.8 C 3.8 km/h (1 Bft)
21.07.2007 21:00 16.1 C 97 % 1015.0 hPa 3.2 l/m 5.2 km/h (1 Bft) W-NW 0.00 h 0 W/m 15.6 C 16.1 C 9.1 km/h (2 Bft)
21.07.2007 22:00 15.5 C 98 % 1015.0 hPa 0.4 l/m 6.7 km/h (2 Bft) W 0.00 h 0 W/m 15.2 C 15.5 C 10.8 km/h (2 Bft)
21.07.2007 23:00 15.3 C 98 % 1015.4 hPa 3.6 l/m 2.3 km/h (1 Bft) W-SW 0.00 h 0 W/m 15.0 C 15.3 C 5.6 km/h (1 Bft)
22.07.2007 00:00 15.4 C 98 % 1015.1 hPa 1.0 l/m 1.3 km/h (1 Bft) S-SO 0.00 h 0 W/m 15.1 C 15.4 C 3.2 km/h (1 Bft)
22.07.2007 01:00 15.4 C 99 % 1015.2 hPa 0.6 l/m 2.6 km/h (1 Bft) S-SO 0.00 h 0 W/m 15.2 C 15.4 C 4.6 km/h (1 Bft)
22.07.2007 02:00 15.4 C 99 % 1014.9 hPa 0.2 l/m 0.3 km/h (0 Bft) O-SO 0.00 h 0 W/m 15.2 C 15.4 C 1.5 km/h (1 Bft)
22.07.2007 03:00 15.4 C 99 % 1015.0 hPa 0.0 l/m 0.0 km/h (0 Bft) N 0.00 h 0 W/m 15.3 C 15.4 C 0.1 km/h (0 Bft)
22.07.2007 04:00 15.2 C 100 % 1014.9 hPa 0.0 l/m 0.0 km/h (0 Bft) N 0.00 h 0 W/m 15.2 C 15.2 C 0.0 km/h (0 Bft)
22.07.2007 05:00 15.1 C 100 % 1015.3 hPa 0.0 l/m 0.0 km/h (0 Bft) N 0.00 h 0 W/m 15.0 C 15.1 C 0.1 km/h (0 Bft)
22.07.2007 06:00 15.2 C 100 % 1015.4 hPa 0.0 l/m 0.1 km/h (0 Bft) W 0.00 h 10 W/m 15.1 C 15.2 C 0.6 km/h (0 Bft)
22.07.2007 07:00 15.3 C 100 % 1015.7 hPa 0.0 l/m 0.2 km/h (0 Bft) SW 0.00 h 50 W/m 15.3 C 15.3 C 1.1 km/h (1 Bft)
22.07.2007 08:00 15.5 C 99 % 1016.1 hPa 0.0 l/m 0.6 km/h (0 Bft) W-SW 0.00 h 106 W/m 15.3 C 15.5 C 2.0 km/h (1 Bft)
22.07.2007 09:00 15.9 C 93 % 1016.3 hPa 0.0 l/m 5.2 km/h (1 Bft) W 0.28 h 290 W/m 14.8 C 15.9 C 9.2 km/h (2 Bft)
22.07.2007 10:00 16.9 C 85 % 1016.3 hPa 0.0 l/m 8.9 km/h (2 Bft) W 0.42 h 429 W/m 14.3 C 16.9 C 14.0 km/h (3 Bft)
22.07.2007 11:00 18.6 C 72 % 1016.4 hPa 0.0 l/m 10.7 km/h (2 Bft) W 0.97 h 763 W/m 13.5 C 18.6 C 16.2 km/h (3 Bft)
22.07.2007 12:00 19.8 C 66 % 1016.3 hPa 0.0 l/m 7.7 km/h (2 Bft) W 0.60 h 648 W/m 13.2 C 19.8 C 12.8 km/h (3 Bft)
22.07.2007 13:00 19.9 C 64 % 1015.8 hPa 0.0 l/m 5.0 km/h (1 Bft) W-SW 0.20 h 479 W/m 12.9 C 19.9 C 8.5 km/h (2 Bft)
22.07.2007 14:00 20.9 C 58 % 1015.1 hPa 0.0 l/m 4.4 km/h (1 Bft) W-SW 0.20 h 453 W/m 12.2 C 20.9 C 8.0 km/h (2 Bft)
22.07.2007 15:00 20.9 C 61 % 1014.7 hPa 0.0 l/m 2.6 km/h (1 Bft) W-SW 0.17 h 389 W/m 12.9 C 20.9 C 5.4 km/h (1 Bft)
22.07.2007 16:00 21.7 C 58 % 1014.2 hPa 0.0 l/m 1.8 km/h (1 Bft) W-SW 0.52 h 443 W/m 13.1 C 21.7 C 4.3 km/h (1 Bft)
22.07.2007 17:00 22.8 C 51 % 1013.7 hPa 0.0 l/m 4.2 km/h (1 Bft) W-NW 0.67 h 466 W/m 12.2 C 22.8 C 6.8 km/h (2 Bft)
22.07.2007 18:00 21.5 C 56 % 1013.1 hPa 0.0 l/m 1.5 km/h (1 Bft) SO 0.28 h 216 W/m 12.3 C 21.5 C 3.2 km/h (1 Bft)
22.07.2007 19:00 20.6 C 62 % 1012.7 hPa 0.0 l/m 4.0 km/h (1 Bft) O-SO 0.23 h 110 W/m 13.0 C 20.6 C 5.5 km/h (1 Bft)
22.07.2007 20:00 19.1 C 67 % 1012.4 hPa 0.0 l/m 2.3 km/h (1 Bft) O-SO 0.00 h 30 W/m 12.9 C 19.1 C 3.9 km/h (1 Bft)
22.07.2007 21:00 17.0 C 79 % 1012.5 hPa 0.0 l/m 2.4 km/h (1 Bft) O-SO 0.00 h 6 W/m 13.4 C 17.0 C 3.5 km/h (1 Bft)
22.07.2007 22:00 15.7 C 85 % 1012.5 hPa 0.0 l/m 0.4 km/h (0 Bft) SO 0.00 h 0 W/m 13.2 C 15.7 C 1.1 km/h (1 Bft)
22.07.2007 23:00 14.8 C 88 % 1012.0 hPa 0.0 l/m 0.9 km/h (0 Bft) SO 0.00 h 0 W/m 12.9 C 14.8 C 1.9 km/h (1 Bft)
Min-Datum _ 22.07.07 16.07.07 16.07.07 - 16.07.07 - - - 22.07.07 22.07.07 16.07.07
_ Min-Zeit 23:58 16:00 20:15 - 00:03 - - - 14:51 23:58 00:03
Minimum _ 14.5 C 26 % 1010.2 hPa - 0.0 km/h (0 Bft) - - - 10.1 C 14.5 C 0.0 km/h (0 Bft)
Max-Datum _ 16.07.07 20.07.07 18.07.07 21.07.07 20.07.07 - 16.07.07 17.07.07 16.07.07 16.07.07 20.07.07
_ Max-Zeit 16:19 06:21 11:15 18:03 12:26 - 07:11 14:54 20:43 16:19 12:26
Maximum _ 34.0 C 100 % 1020.1 hPa 4.6 l/m 30.4 km/h
W (5 Bft)
- 0.02 h 1079 W/m 20.7 C 34.0 C 41.7 km/h
W (6 Bft)
Durchschnitt _ 21.2 C 76 % 1015.4 hPa #28.4 l/m 3.0 km/h (1 Bft) W #40:54 h 308 W/m 16.2 C 21.2 C 5.2 km/h (1 Bft)
© Kaiko 2007